Time;durP1;ratioP1;P1;durP2;ratioP2;P2;SDS_P1;SDS_P2;PMS_P1;PMS_P2;Temp;Humidity;BMP_temperature;BMP_pressure;BME280_temperature;BME280_humidity;BME280_pressure;Samples;Min_cycle;Max_cycle;Signal;HPM_P1;HPM_P2
2021/10/01 00:02:16;;;;;;;14.98;11.13;;;;;;;;;;4995513;28;20516;-74
2021/10/01 00:04:43;;;;;;;16.45;10.73;;;;;;;;;;4995594;28;20102;-74
2021/10/01 00:07:15;;;;;;;15.32;11.07;;;;;;;;;;4994610;28;20054;-73
2021/10/01 00:09:42;;;;;;;19.50;12.20;;;;;;;;;;4995771;28;20069;-74
2021/10/01 00:12:11;;;;;;;16.50;11.90;;;;;;;;;;4995552;28;20038;-74
2021/10/01 00:14:40;;;;;;;18.90;12.13;;;;;;;;;;4996103;28;20042;-74
2021/10/01 00:17:09;;;;;;;17.05;11.57;;;;;;;;;;4995769;28;20121;-74
2021/10/01 00:19:38;;;;;;;21.23;12.68;;;;;;;;;;4995518;28;20043;-74
2021/10/01 00:22:06;;;;;;;14.85;11.23;;;;;;;;;;4995602;28;20042;-73
2021/10/01 00:24:38;;;;;;;17.40;11.73;;;;;;;;;;4995424;28;20048;-74
2021/10/01 00:27:09;;;;;;;15.90;10.90;;;;;;;;;;4995679;28;20040;-74
2021/10/01 00:29:45;;;;;;;15.10;10.57;;;;;;;;;;4994762;28;20054;-73
2021/10/01 00:32:15;;;;;;;14.57;10.30;;;;;;;;;;4994260;28;20046;-74
2021/10/01 00:34:44;;;;;;;12.88;9.98;;;;;;;;;;4994035;28;20074;-74
2021/10/01 00:37:11;;;;;;;12.00;9.70;;;;;;;;;;4994518;28;20437;-73
2021/10/01 00:39:42;;;;;;;12.02;9.40;;;;;;;;;;4994044;28;20060;-74
2021/10/01 00:42:13;;;;;;;12.18;9.27;;;;;;;;;;4995110;28;20457;-74
2021/10/01 00:44:44;;;;;;;19.35;11.07;;;;;;;;;;4995194;28;20042;-74
2021/10/01 00:47:12;;;;;;;19.85;11.50;;;;;;;;;;4994230;28;20070;-74
2021/10/01 00:49:40;;;;;;;18.42;12.80;;;;;;;;;;4994828;28;20224;-74
2021/10/01 00:52:11;;;;;;;21.60;13.07;;;;;;;;;;4995278;28;20045;-78
2021/10/01 00:54:38;;;;;;;26.40;12.88;;;;;;;;;;4993549;28;20050;-73
2021/10/01 00:57:06;;;;;;;24.77;12.23;;;;;;;;;;4994917;28;20043;-74
2021/10/01 00:59:37;;;;;;;17.05;11.60;;;;;;;;;;4995277;28;20466;-73
2021/10/01 01:02:06;;;;;;;17.67;10.80;;;;;;;;;;4994372;28;20046;-74
2021/10/01 01:04:37;;;;;;;14.52;9.68;;;;;;;;;;4993482;28;20054;-74
2021/10/01 01:07:04;;;;;;;13.23;8.80;;;;;;;;;;4994780;28;20042;-73
2021/10/01 01:09:32;;;;;;;12.23;9.00;;;;;;;;;;4993133;28;20073;-73
2021/10/01 01:12:01;;;;;;;10.18;8.23;;;;;;;;;;4993611;28;20109;-74
2021/10/01 01:14:55;;;;;;;11.27;8.27;;;;;;;;;;4993424;28;20054;-74
2021/10/01 01:17:31;;;;;;;16.42;8.02;;;;;;;;;;4976131;28;20045;-74
2021/10/01 01:20:05;;;;;;;9.80;7.47;;;;;;;;;;4993368;28;20085;-73
2021/10/01 01:22:42;;;;;;;11.13;7.60;;;;;;;;;;4993127;28;20465;-74
2021/10/01 01:25:10;;;;;;;8.25;7.35;;;;;;;;;;4992815;28;20577;-74
2021/10/01 01:27:44;;;;;;;9.70;7.35;;;;;;;;;;4992751;28;20516;-73
2021/10/01 01:30:20;;;;;;;11.43;7.78;;;;;;;;;;4993194;28;20050;-74
2021/10/01 01:33:02;;;;;;;9.90;7.75;;;;;;;;;;4993087;28;20506;-74
2021/10/01 01:35:34;;;;;;;11.52;7.93;;;;;;;;;;4993016;28;20457;-74
2021/10/01 01:38:06;;;;;;;9.93;7.68;;;;;;;;;;4993084;28;20108;-74
2021/10/01 01:40:35;;;;;;;9.82;8.10;;;;;;;;;;4994518;28;20039;-74
2021/10/01 01:43:06;;;;;;;8.70;7.65;;;;;;;;;;4976114;28;20541;-74
2021/10/01 01:45:36;;;;;;;13.40;8.25;;;;;;;;;;4993884;28;20043;-74
2021/10/01 01:48:05;;;;;;;11.45;7.80;;;;;;;;;;4993054;28;20083;-74
2021/10/01 01:50:34;;;;;;;10.25;7.97;;;;;;;;;;4992574;28;20038;-74
2021/10/01 01:53:03;;;;;;;10.38;7.60;;;;;;;;;;4992700;28;20066;-73
2021/10/01 01:55:33;;;;;;;10.77;8.10;;;;;;;;;;4993007;28;20042;-74
2021/10/01 01:58:01;;;;;;;10.77;7.57;;;;;;;;;;4977203;28;20406;-74
2021/10/01 02:00:55;;;;;;;11.75;8.27;;;;;;;;;;4993736;28;20070;-74
2021/10/01 02:03:25;;;;;;;9.88;8.25;;;;;;;;;;4992315;28;20083;-74
2021/10/01 02:06:06;;;;;;;9.23;7.50;;;;;;;;;;4992490;28;20048;-74
2021/10/01 02:08:37;;;;;;;11.38;8.65;;;;;;;;;;4992160;28;20133;-74
2021/10/01 02:11:05;;;;;;;9.50;8.02;;;;;;;;;;4992868;28;20070;-74
2021/10/01 02:13:34;;;;;;;8.82;7.90;;;;;;;;;;4991837;28;20080;-73
2021/10/01 02:16:13;;;;;;;10.48;8.35;;;;;;;;;;4992432;28;20097;-73
2021/10/01 02:18:42;;;;;;;9.77;7.90;;;;;;;;;;4992861;28;20050;-73
2021/10/01 02:21:12;;;;;;;13.02;9.00;;;;;;;;;;4960198;28;20108;-74
2021/10/01 02:23:40;;;;;;;12.30;9.10;;;;;;;;;;4992007;28;20073;-74
2021/10/01 02:29:03;;;;;;;12.30;8.98;;;;;;;;;;4993302;28;20527;-74
2021/10/01 02:31:35;;;;;;;11.13;8.93;;;;;;;;;;4975937;28;20401;-74
2021/10/01 02:34:08;;;;;;;13.50;9.80;;;;;;;;;;4992553;28;20057;-74
2021/10/01 02:36:39;;;;;;;12.93;9.80;;;;;;;;;;4992256;28;20058;-73
2021/10/01 02:39:09;;;;;;;13.02;9.07;;;;;;;;;;4993693;28;20316;-74
2021/10/01 02:41:37;;;;;;;10.85;9.00;;;;;;;;;;4992233;28;20050;-73
2021/10/01 02:44:05;;;;;;;15.02;10.45;;;;;;;;;;4991775;28;20034;-74
2021/10/01 02:46:34;;;;;;;12.02;10.13;;;;;;;;;;4975757;28;20046;-74
2021/10/01 02:49:02;;;;;;;13.93;10.27;;;;;;;;;;4976134;28;20065;-74
2021/10/01 02:51:30;;;;;;;15.45;10.90;;;;;;;;;;4993470;28;20192;-74
2021/10/01 02:54:02;;;;;;;12.52;9.75;;;;;;;;;;4978160;28;20058;-74
2021/10/01 02:56:33;;;;;;;15.25;11.07;;;;;;;;;;4979778;28;20126;-74
2021/10/01 02:59:05;;;;;;;15.40;10.82;;;;;;;;;;4979239;28;20051;-73
2021/10/01 03:01:37;;;;;;;14.40;10.83;;;;;;;;;;4979527;28;20050;-74
2021/10/01 03:04:13;;;;;;;13.38;10.70;;;;;;;;;;4979654;28;20661;-74
2021/10/01 03:06:44;;;;;;;15.15;10.77;;;;;;;;;;4979390;28;20046;-74
2021/10/01 03:09:14;;;;;;;16.20;10.88;;;;;;;;;;4979325;28;20047;-74
2021/10/01 03:11:44;;;;;;;15.27;11.23;;;;;;;;;;4979402;28;20073;-74
2021/10/01 03:14:19;;;;;;;14.23;11.68;;;;;;;;;;4979127;28;20140;-74
2021/10/01 03:16:50;;;;;;;14.40;11.02;;;;;;;;;;4979022;28;20149;-74
2021/10/01 03:19:22;;;;;;;15.88;11.85;;;;;;;;;;4979844;28;20054;-74
2021/10/01 03:21:54;;;;;;;13.38;11.05;;;;;;;;;;4979094;28;20088;-74
2021/10/01 03:24:22;;;;;;;16.70;11.80;;;;;;;;;;4978788;28;20042;-74
2021/10/01 03:26:53;;;;;;;14.52;11.70;;;;;;;;;;4962793;28;20096;-74
2021/10/01 03:29:23;;;;;;;14.68;12.45;;;;;;;;;;4978904;28;20125;-74
2021/10/01 03:31:53;;;;;;;16.98;12.75;;;;;;;;;;4978896;28;20068;-74
2021/10/01 03:34:21;;;;;;;16.17;13.02;;;;;;;;;;4978663;28;20054;-74
2021/10/01 03:36:54;;;;;;;17.88;12.55;;;;;;;;;;4978765;28;20073;-74
2021/10/01 03:39:22;;;;;;;16.45;12.95;;;;;;;;;;4979287;28;20462;-74
2021/10/01 03:41:52;;;;;;;19.05;13.88;;;;;;;;;;4978648;28;20042;-74
2021/10/01 03:44:20;;;;;;;16.23;12.90;;;;;;;;;;4978721;28;20035;-74
2021/10/01 03:46:51;;;;;;;22.83;12.90;;;;;;;;;;4996568;28;20092;-74
2021/10/01 03:49:19;;;;;;;20.23;14.17;;;;;;;;;;4978818;28;20050;-75
2021/10/01 03:51:47;;;;;;;19.05;13.75;;;;;;;;;;4979059;28;20069;-73
2021/10/01 03:54:15;;;;;;;18.70;13.38;;;;;;;;;;4978491;28;20414;-75
2021/10/01 03:56:47;;;;;;;20.40;14.70;;;;;;;;;;4978716;28;20100;-74
2021/10/01 03:59:16;;;;;;;18.85;13.07;;;;;;;;;;4995437;28;20461;-74
2021/10/01 04:01:44;;;;;;;20.05;14.32;;;;;;;;;;4978543;28;20046;-74
2021/10/01 04:04:12;;;;;;;18.23;13.70;;;;;;;;;;4977690;28;20129;-74
2021/10/01 04:06:40;;;;;;;20.70;13.88;;;;;;;;;;4978175;28;20070;-73
2021/10/01 04:09:07;;;;;;;17.83;14.02;;;;;;;;;;4994677;28;20049;-74
2021/10/01 04:11:38;;;;;;;18.73;14.18;;;;;;;;;;4978028;28;20096;-73
2021/10/01 04:14:08;;;;;;;19.27;14.88;;;;;;;;;;4962773;28;20047;-74
2021/10/01 04:16:36;;;;;;;17.63;14.50;;;;;;;;;;4978183;28;20066;-74
2021/10/01 04:19:08;;;;;;;17.55;13.70;;;;;;;;;;4995256;28;20046;-74
2021/10/01 04:21:37;;;;;;;19.75;15.25;;;;;;;;;;4978019;28;20454;-74
2021/10/01 04:24:05;;;;;;;21.85;14.55;;;;;;;;;;4994076;28;20042;-73
2021/10/01 04:27:01;;;;;;;20.40;15.43;;;;;;;;;;4988356;28;20418;-74
2021/10/01 04:29:34;;;;;;;18.02;14.35;;;;;;;;;;4977857;28;20572;-73
2021/10/01 04:32:05;;;;;;;19.77;14.50;;;;;;;;;;4978065;28;20395;-74
2021/10/01 04:34:38;;;;;;;18.27;14.50;;;;;;;;;;4962133;28;20046;-73
2021/10/01 04:37:09;;;;;;;19.05;14.95;;;;;;;;;;4977878;28;20054;-74
2021/10/01 04:39:36;;;;;;;19.23;14.32;;;;;;;;;;4977813;28;20133;-74
2021/10/01 04:42:04;;;;;;;19.17;15.38;;;;;;;;;;4977695;28;20046;-74
2021/10/01 04:44:35;;;;;;;21.40;15.35;;;;;;;;;;4961732;28;20046;-74
2021/10/01 04:47:03;;;;;;;19.70;15.32;;;;;;;;;;4961593;28;20046;-74
2021/10/01 04:49:34;;;;;;;20.65;15.45;;;;;;;;;;4995252;28;20117;-74
2021/10/01 04:52:07;;;;;;;22.17;16.75;;;;;;;;;;4977857;28;20092;-74
2021/10/01 04:54:36;;;;;;;22.27;15.88;;;;;;;;;;4993682;28;20046;-73
2021/10/01 04:57:04;;;;;;;22.30;16.33;;;;;;;;;;4977484;28;20050;-74
2021/10/01 04:59:53;;;;;;;21.10;16.27;;;;;;;;;;4994763;28;20050;-74
2021/10/01 05:02:40;;;;;;;22.38;15.63;;;;;;;;;;4994646;28;20054;-73
2021/10/01 05:05:15;;;;;;;22.42;16.25;;;;;;;;;;4993364;28;20129;-71
2021/10/01 05:08:03;;;;;;;20.17;14.00;;;;;;;;;;4994913;28;20057;-72
2021/10/01 05:10:55;;;;;;;18.83;14.43;;;;;;;;;;4984677;28;20140;-72
2021/10/01 05:13:58;;;;;;;19.88;14.48;;;;;;;;;;4954072;28;20217;-72
2021/10/01 05:16:45;;;;;;;19.20;13.93;;;;;;;;;;4978795;28;20124;-73
2021/10/01 05:19:35;;;;;;;25.90;15.10;;;;;;;;;;4994558;28;20046;-72
2021/10/01 05:22:33;;;;;;;20.00;15.00;;;;;;;;;;4993767;28;20050;-72
2021/10/01 05:25:02;;;;;;;16.55;14.43;;;;;;;;;;4975620;28;20138;-70
2021/10/01 05:27:31;;;;;;;21.08;14.82;;;;;;;;;;4991822;28;20052;-71
2021/10/01 05:29:58;;;;;;;23.80;14.52;;;;;;;;;;4991174;28;20048;-73
2021/10/01 05:32:31;;;;;;;23.95;14.85;;;;;;;;;;5008959;28;20039;-71
2021/10/01 05:35:01;;;;;;;39.53;14.52;;;;;;;;;;5008676;28;20062;-71
2021/10/01 05:50:41;;;;;;;28.98;18.30;;;;;;;;;;5131579;27;20378;-71
2021/10/01 05:56:31;;;;;;;25.33;14.60;;;;;;;;;;5130906;28;20135;-73
2021/10/01 05:59:18;;;;;;;20.48;14.38;;;;;;;;;;5130609;28;20495;-68
2021/10/01 06:01:46;;;;;;;20.95;14.63;;;;;;;;;;5130521;28;20365;-69
2021/10/01 06:04:26;;;;;;;21.75;16.10;;;;;;;;;;5130689;27;20035;-70
2021/10/01 06:06:53;;;;;;;29.17;18.75;;;;;;;;;;5129526;28;20051;-68
2021/10/01 06:09:22;;;;;;;18.70;13.50;;;;;;;;;;5129758;28;20089;-71
2021/10/01 06:11:54;;;;;;;15.82;12.75;;;;;;;;;;5130940;27;20070;-70
2021/10/01 06:14:24;;;;;;;22.70;12.55;;;;;;;;;;5130975;28;20050;-70
2021/10/01 06:16:53;;;;;;;28.85;13.98;;;;;;;;;;5130568;27;20126;-70
2021/10/01 06:19:21;;;;;;;24.73;13.27;;;;;;;;;;5130633;27;20511;-70
2021/10/01 06:21:52;;;;;;;21.40;14.00;;;;;;;;;;5130264;28;20055;-70
2021/10/01 06:24:19;;;;;;;21.75;14.93;;;;;;;;;;5130283;27;20122;-70
2021/10/01 06:26:47;;;;;;;24.17;18.33;;;;;;;;;;5129163;28;20039;-68
2021/10/01 06:29:18;;;;;;;25.00;16.80;;;;;;;;;;5130674;27;20403;-70
2021/10/01 06:31:49;;;;;;;21.58;14.27;;;;;;;;;;5129117;28;20039;-70
2021/10/01 06:34:17;;;;;;;18.73;14.20;;;;;;;;;;5130211;27;20093;-69
2021/10/01 06:36:46;;;;;;;20.88;15.00;;;;;;;;;;5130136;27;20084;-69
2021/10/01 06:39:13;;;;;;;16.85;13.20;;;;;;;;;;5129409;28;20047;-68
2021/10/01 06:41:41;;;;;;;20.83;14.10;;;;;;;;;;5130030;27;20044;-70
2021/10/01 06:44:18;;;;;;;22.50;15.60;;;;;;;;;;5129458;27;20039;-69
2021/10/01 06:46:50;;;;;;;18.42;13.40;;;;;;;;;;5130212;27;20047;-69
2021/10/01 06:51:54;;;;;;;17.33;13.43;;;;;;;;;;5135593;27;20031;-69
2021/10/01 07:39:21;;;;;;;16.67;9.85;;;;;;;;;;5136298;27;20445;-70
2021/10/01 08:18:23;;;;;;;16.58;9.05;;;;;;;;;;5135657;27;20142;-71
2021/10/01 08:21:06;;;;;;;11.95;8.05;;;;;;;;;;5135238;27;20413;-70
2021/10/01 08:23:34;;;;;;;14.50;8.32;;;;;;;;;;5134944;27;20093;-70
2021/10/01 08:26:02;;;;;;;10.93;7.72;;;;;;;;;;5135051;27;20043;-69
2021/10/01 08:28:29;;;;;;;17.45;8.30;;;;;;;;;;5135308;27;20047;-69
2021/10/01 08:31:11;;;;;;;16.77;8.95;;;;;;;;;;5133916;27;20451;-69
2021/10/01 08:33:40;;;;;;;13.63;8.38;;;;;;;;;;5133930;27;20500;-69
2021/10/01 08:36:07;;;;;;;15.13;8.65;;;;;;;;;;5135138;27;20061;-69
2021/10/01 08:38:40;;;;;;;14.48;8.32;;;;;;;;;;5133321;27;20433;-70
2021/10/01 08:41:10;;;;;;;11.75;8.65;;;;;;;;;;5133526;27;20031;-70
2021/10/01 08:43:41;;;;;;;11.45;7.88;;;;;;;;;;5134260;27;20118;-70
2021/10/01 08:46:10;;;;;;;14.52;8.00;;;;;;;;;;5134667;27;20043;-70
2021/10/01 08:48:38;;;;;;;13.95;7.85;;;;;;;;;;5133887;27;20480;-69
2021/10/01 08:51:08;;;;;;;14.13;8.63;;;;;;;;;;5133243;27;20035;-69
2021/10/01 08:53:35;;;;;;;12.50;9.10;;;;;;;;;;5134858;27;20422;-69
2021/10/01 08:56:08;;;;;;;12.73;9.30;;;;;;;;;;5134217;27;20074;-69
2021/10/01 08:58:35;;;;;;;12.27;8.57;;;;;;;;;;5134240;27;20034;-69
2021/10/01 09:01:04;;;;;;;14.05;9.05;;;;;;;;;;5134313;27;20036;-70
2021/10/01 09:03:32;;;;;;;12.63;8.88;;;;;;;;;;5133897;27;20063;-69
2021/10/01 09:05:59;;;;;;;11.75;8.90;;;;;;;;;;5134340;27;20472;-69
2021/10/01 09:08:29;;;;;;;13.52;8.60;;;;;;;;;;5134193;27;20118;-69
2021/10/01 09:11:01;;;;;;;12.23;9.02;;;;;;;;;;5134145;27;20043;-69
2021/10/01 09:13:36;;;;;;;13.63;8.80;;;;;;;;;;5132633;27;20047;-69
2021/10/01 09:16:06;;;;;;;10.90;8.80;;;;;;;;;;5133849;27;20038;-70
2021/10/01 09:18:35;;;;;;;14.10;9.18;;;;;;;;;;5132041;27;20767;-70
2021/10/01 09:21:03;;;;;;;15.98;8.70;;;;;;;;;;5133883;27;20053;-69
2021/10/01 09:23:40;;;;;;;14.30;9.02;;;;;;;;;;5133946;27;20039;-69
2021/10/01 09:26:15;;;;;;;18.08;9.23;;;;;;;;;;5133997;27;20394;-70
2021/10/01 09:29:03;;;;;;;17.65;9.90;;;;;;;;;;5133150;27;20096;-70
2021/10/01 09:31:42;;;;;;;15.15;9.02;;;;;;;;;;5133777;27;20039;-70
2021/10/01 09:34:30;;;;;;;11.52;9.27;;;;;;;;;;5133728;27;20477;-70
2021/10/01 09:37:03;;;;;;;12.48;9.40;;;;;;;;;;5133626;27;20066;-69
2021/10/01 09:39:33;;;;;;;18.42;11.95;;;;;;;;;;5132895;28;20040;-69
2021/10/01 09:42:20;;;;;;;13.02;9.57;;;;;;;;;;5133918;27;20043;-69
2021/10/01 09:44:50;;;;;;;14.68;9.05;;;;;;;;;;5133566;28;20051;-70
2021/10/01 09:47:37;;;;;;;12.93;8.80;;;;;;;;;;5132408;28;20129;-69
2021/10/01 09:50:08;;;;;;;13.32;9.30;;;;;;;;;;5133497;28;20043;-70
2021/10/01 09:52:43;;;;;;;12.50;9.80;;;;;;;;;;5134238;28;20088;-69
2021/10/01 09:55:10;;;;;;;11.75;9.77;;;;;;;;;;5133325;28;20054;-69
2021/10/01 09:57:40;;;;;;;13.95;9.20;;;;;;;;;;5132930;28;20039;-69
2021/10/01 10:00:08;;;;;;;15.23;9.35;;;;;;;;;;5133376;28;20512;-70
2021/10/01 10:02:38;;;;;;;21.05;9.98;;;;;;;;;;5133350;27;20047;-69
2021/10/01 10:05:06;;;;;;;17.33;9.93;;;;;;;;;;5133405;28;20565;-69
2021/10/01 10:07:39;;;;;;;12.60;9.45;;;;;;;;;;5133814;28;20507;-70
2021/10/01 10:10:08;;;;;;;12.25;9.77;;;;;;;;;;5133132;28;20057;-69
2021/10/01 10:12:43;;;;;;;13.25;10.13;;;;;;;;;;5133792;28;20537;-70
2021/10/01 10:15:14;;;;;;;15.43;9.98;;;;;;;;;;5132892;27;20067;-69
2021/10/01 10:17:52;;;;;;;14.00;10.55;;;;;;;;;;5131835;28;20101;-70
2021/10/01 10:20:20;;;;;;;14.63;10.23;;;;;;;;;;5133146;27;20047;-70
2021/10/01 10:22:50;;;;;;;17.00;10.88;;;;;;;;;;5132901;28;20092;-70
2021/10/01 10:25:17;;;;;;;20.95;9.30;;;;;;;;;;5134479;27;20043;-70
2021/10/01 10:27:45;;;;;;;19.83;14.25;;;;;;;;;;5137520;27;20104;-70
2021/10/01 10:30:16;;;;;;;16.55;10.05;;;;;;;;;;5136711;27;20067;-70
2021/10/01 10:32:44;;;;;;;13.02;9.20;;;;;;;;;;5136591;27;20519;-70
2021/10/01 10:35:17;;;;;;;12.93;9.35;;;;;;;;;;5136817;27;20063;-70
2021/10/01 10:37:53;;;;;;;14.70;9.82;;;;;;;;;;5136726;27;20555;-69
2021/10/01 10:40:23;;;;;;;13.05;9.48;;;;;;;;;;5136768;27;20047;-69
2021/10/01 10:42:52;;;;;;;13.85;10.45;;;;;;;;;;5135886;27;20089;-70
2021/10/01 10:45:27;;;;;;;17.83;9.73;;;;;;;;;;5136640;27;20131;-69
2021/10/01 10:48:01;;;;;;;15.40;9.40;;;;;;;;;;5137047;27;20054;-70
2021/10/01 10:50:29;;;;;;;12.30;10.15;;;;;;;;;;5136529;27;20103;-70
2021/10/01 10:53:41;;;;;;;16.13;11.02;;;;;;;;;;5136429;27;20092;-70
2021/10/01 10:56:14;;;;;;;16.45;10.85;;;;;;;;;;5132926;27;20069;-70
2021/10/01 10:58:42;;;;;;;14.98;10.40;;;;;;;;;;5136091;27;20154;-70
2021/10/01 11:01:23;;;;;;;18.45;11.20;;;;;;;;;;5136103;27;20051;-71
2021/10/01 11:04:11;;;;;;;19.17;11.75;;;;;;;;;;5136108;27;20043;-70
2021/10/01 11:06:39;;;;;;;20.08;11.23;;;;;;;;;;5136737;27;20047;-72
2021/10/01 11:09:13;;;;;;;15.02;11.25;;;;;;;;;;5136084;27;20150;-70
2021/10/01 11:11:45;;;;;;;21.40;12.10;;;;;;;;;;5136031;27;20511;-70
2021/10/01 11:14:23;;;;;;;16.58;11.00;;;;;;;;;;5135540;27;20066;-70
2021/10/01 11:17:03;;;;;;;17.50;11.27;;;;;;;;;;5136188;27;20073;-73
2021/10/01 11:19:38;;;;;;;16.52;11.65;;;;;;;;;;5135851;27;20039;-72
2021/10/01 11:22:27;;;;;;;16.52;11.00;;;;;;;;;;5134911;27;20054;-72
2021/10/01 11:24:58;;;;;;;18.33;12.05;;;;;;;;;;5135645;27;20051;-70
2021/10/01 11:27:46;;;;;;;17.08;12.75;;;;;;;;;;5135806;27;20043;-70
2021/10/01 11:30:16;;;;;;;16.63;11.07;;;;;;;;;;5136415;27;20039;-71
2021/10/01 11:32:47;;;;;;;19.17;11.45;;;;;;;;;;5135993;27;20042;-71
2021/10/01 11:35:16;;;;;;;19.55;12.98;;;;;;;;;;5135571;27;20035;-70
2021/10/01 11:37:49;;;;;;;20.85;12.07;;;;;;;;;;5135857;27;20091;-72
2021/10/01 11:40:20;;;;;;;15.93;11.50;;;;;;;;;;5135003;27;20035;-73
2021/10/01 11:42:48;;;;;;;20.60;11.73;;;;;;;;;;5131752;27;20047;-72
2021/10/01 11:45:20;;;;;;;22.15;13.98;;;;;;;;;;5132857;27;20043;-71
2021/10/01 11:48:01;;;;;;;24.83;12.38;;;;;;;;;;5132901;27;20043;-72
2021/10/01 11:50:31;;;;;;;20.48;12.52;;;;;;;;;;5133666;27;20047;-70
2021/10/01 11:52:59;;;;;;;14.80;11.18;;;;;;;;;;5135006;27;20046;-70
2021/10/01 11:55:36;;;;;;;22.80;14.68;;;;;;;;;;5134601;27;20438;-70
2021/10/01 11:58:15;;;;;;;16.20;12.05;;;;;;;;;;5134393;27;20046;-71
2021/10/01 12:00:42;;;;;;;16.20;11.18;;;;;;;;;;5134781;27;20047;-71
2021/10/01 12:03:14;;;;;;;21.70;13.65;;;;;;;;;;5135420;27;20043;-71
2021/10/01 12:05:46;;;;;;;18.17;12.38;;;;;;;;;;5134573;27;20051;-71
2021/10/01 12:08:19;;;;;;;16.02;11.30;;;;;;;;;;5134559;27;20043;-71
2021/10/01 12:10:47;;;;;;;21.17;12.00;;;;;;;;;;5132860;27;20476;-71
2021/10/01 12:13:30;;;;;;;18.45;11.98;;;;;;;;;;5134100;27;20046;-71
2021/10/01 12:16:12;;;;;;;19.73;12.35;;;;;;;;;;5133133;27;20087;-70
2021/10/01 12:18:45;;;;;;;19.17;11.45;;;;;;;;;;5134623;27;20042;-70
2021/10/01 12:21:13;;;;;;;19.05;11.35;;;;;;;;;;5134493;27;20043;-70
2021/10/01 12:23:43;;;;;;;16.40;11.23;;;;;;;;;;5134707;27;20075;-70
2021/10/01 12:26:14;;;;;;;15.90;10.82;;;;;;;;;;5134266;27;20050;-70
2021/10/01 12:28:42;;;;;;;24.13;11.18;;;;;;;;;;5133440;27;20388;-70
2021/10/01 12:31:13;;;;;;;18.80;11.02;;;;;;;;;;5134625;27;20067;-70
2021/10/01 12:33:40;;;;;;;16.60;10.75;;;;;;;;;;5134311;27;20047;-70
2021/10/01 12:36:08;;;;;;;19.33;11.45;;;;;;;;;;5134523;27;20042;-70
2021/10/01 12:38:37;;;;;;;17.13;11.02;;;;;;;;;;5134331;27;20087;-70
2021/10/01 12:41:09;;;;;;;15.15;10.57;;;;;;;;;;5133671;27;20125;-70
2021/10/01 12:43:45;;;;;;;18.40;10.60;;;;;;;;;;5133670;27;20092;-70
2021/10/01 12:46:30;;;;;;;15.18;10.35;;;;;;;;;;5128021;27;20047;-70
2021/10/01 12:49:18;;;;;;;15.02;10.30;;;;;;;;;;5125898;27;20122;-70
2021/10/01 12:52:11;;;;;;;19.65;12.18;;;;;;;;;;5131872;27;20043;-72
2021/10/01 12:54:38;;;;;;;22.80;11.52;;;;;;;;;;5133510;27;20042;-71
2021/10/01 12:57:19;;;;;;;15.82;10.10;;;;;;;;;;5133538;27;20038;-71
2021/10/01 12:59:48;;;;;;;19.27;9.77;;;;;;;;;;5133723;27;20049;-71
2021/10/01 13:02:21;;;;;;;16.20;10.75;;;;;;;;;;5134303;27;20036;-70
2021/10/01 13:05:00;;;;;;;17.58;11.10;;;;;;;;;;5133621;27;20088;-71
2021/10/01 13:07:29;;;;;;;22.08;11.77;;;;;;;;;;5131741;27;20449;-70
2021/10/01 13:10:03;;;;;;;19.98;10.63;;;;;;;;;;5134011;27;20649;-72
2021/10/01 13:12:34;;;;;;;20.73;11.15;;;;;;;;;;5134345;27;20114;-71
2021/10/01 13:15:11;;;;;;;18.38;11.43;;;;;;;;;;5133925;27;20066;-70
2021/10/01 13:17:39;;;;;;;17.75;10.73;;;;;;;;;;5134027;27;20043;-72
2021/10/01 13:20:07;;;;;;;19.17;11.23;;;;;;;;;;5133420;27;20051;-72
2021/10/01 13:22:57;;;;;;;21.23;11.02;;;;;;;;;;5133433;27;20162;-71
2021/10/01 13:25:29;;;;;;;16.92;10.85;;;;;;;;;;5133487;27;20592;-70
2021/10/01 13:27:58;;;;;;;21.92;11.25;;;;;;;;;;5134068;27;20420;-71
2021/10/01 13:30:27;;;;;;;20.35;11.63;;;;;;;;;;5134139;27;20045;-72
2021/10/01 13:32:59;;;;;;;17.88;10.93;;;;;;;;;;5131858;27;20039;-70
2021/10/01 13:35:28;;;;;;;19.42;10.77;;;;;;;;;;5132901;27;20063;-72
2021/10/01 13:37:58;;;;;;;19.17;10.75;;;;;;;;;;5132921;27;20054;-68
2021/10/01 13:40:32;;;;;;;14.93;9.93;;;;;;;;;;5133078;28;20107;-74
2021/10/01 13:43:00;;;;;;;16.80;11.13;;;;;;;;;;5132165;28;20492;-72
2021/10/01 13:45:28;;;;;;;21.67;11.23;;;;;;;;;;5132255;28;20047;-69
2021/10/01 13:47:55;;;;;;;15.05;10.73;;;;;;;;;;5131012;28;20070;-70
2021/10/01 13:50:23;;;;;;;16.48;10.95;;;;;;;;;;5133122;28;20063;-69
2021/10/01 13:52:51;;;;;;;19.42;11.10;;;;;;;;;;5133545;28;20043;-70
2021/10/01 13:55:19;;;;;;;19.20;11.80;;;;;;;;;;5133181;28;20043;-69
2021/10/01 13:57:51;;;;;;;;;;;;;;;;;;5133970;27;20055;-70
2021/10/01 14:00:20;;;;;;;16.20;10.85;;;;;;;;;;5134527;27;19934;-70
2021/10/01 14:02:48;;;;;;;25.48;12.10;;;;;;;;;;5136529;27;20411;-72
2021/10/01 14:05:23;;;;;;;19.00;11.05;;;;;;;;;;5137606;27;20107;-71
2021/10/01 14:07:52;;;;;;;18.88;11.73;;;;;;;;;;5136912;27;20043;-71
2021/10/01 14:10:26;;;;;;;17.77;10.60;;;;;;;;;;5136094;27;20487;-79
2021/10/01 14:12:53;;;;;;;;;;;;;;;;;;5137575;27;20042;-75
2021/10/01 14:15:22;;;;;;;16.35;11.07;;;;;;;;;;5137222;27;19951;-70
2021/10/01 14:17:49;;;;;;;17.40;10.98;;;;;;;;;;5136294;27;20078;-73
2021/10/01 14:20:19;;;;;;;17.15;10.75;;;;;;;;;;5136119;27;20407;-73
2021/10/01 14:22:47;;;;;;;22.55;12.15;;;;;;;;;;5137182;27;20050;-71
2021/10/01 14:25:15;;;;;;;19.33;11.98;;;;;;;;;;5137235;27;20039;-76
2021/10/01 14:27:45;;;;;;;18.90;10.55;;;;;;;;;;5137220;27;20121;-73
2021/10/01 14:30:17;;;;;;;20.83;12.05;;;;;;;;;;5137148;27;20043;-72
2021/10/01 14:32:46;;;;;;;20.50;11.88;;;;;;;;;;5132148;27;20035;-77
2021/10/01 14:35:33;;;;;;;16.75;11.32;;;;;;;;;;5129127;27;20039;-75
2021/10/01 14:38:06;;;;;;;20.33;11.75;;;;;;;;;;5136626;27;20069;-78
2021/10/01 14:40:36;;;;;;;20.17;11.05;;;;;;;;;;5137029;27;20392;-79
2021/10/01 14:43:27;;;;;;;17.97;11.30;;;;;;;;;;5136975;27;20081;-75
2021/10/01 14:45:55;;;;;;;16.50;11.73;;;;;;;;;;5136860;27;20035;-79
2021/10/01 14:48:24;;;;;;;19.95;11.05;;;;;;;;;;5135305;27;20376;-75
2021/10/01 14:50:51;;;;;;;18.58;10.82;;;;;;;;;;5135399;27;20035;-74
2021/10/01 14:53:19;;;;;;;18.48;11.57;;;;;;;;;;5136474;27;20088;-77
2021/10/01 14:55:48;;;;;;;21.25;10.80;;;;;;;;;;5135588;27;20074;-74
2021/10/01 14:58:18;;;;;;;17.08;10.63;;;;;;;;;;5136555;27;20071;-75
2021/10/01 15:00:46;;;;;;;17.13;11.10;;;;;;;;;;5135377;27;20115;-74
2021/10/01 15:03:14;;;;;;;14.75;10.98;;;;;;;;;;5134257;27;20047;-76
2021/10/01 15:05:45;;;;;;;20.58;11.35;;;;;;;;;;5134380;27;20124;-79
2021/10/01 15:08:13;;;;;;;20.45;12.20;;;;;;;;;;5134385;27;20066;-74
2021/10/01 15:10:40;;;;;;;18.13;11.10;;;;;;;;;;5133279;27;20514;-78
2021/10/01 15:13:08;;;;;;;20.85;11.75;;;;;;;;;;5133696;27;20045;-78
2021/10/01 15:15:38;;;;;;;20.98;11.35;;;;;;;;;;5133207;27;20527;-75
2021/10/01 15:18:06;;;;;;;18.73;11.95;;;;;;;;;;5112806;27;20452;-77
2021/10/01 15:20:34;;;;;;;18.48;11.90;;;;;;;;;;5133831;27;20084;-75
2021/10/01 15:23:02;;;;;;;13.65;10.20;;;;;;;;;;5133163;27;20512;-78
2021/10/01 15:25:30;;;;;;;22.95;11.77;;;;;;;;;;5132893;27;20522;-76
2021/10/01 15:27:58;;;;;;;16.17;10.60;;;;;;;;;;5133588;27;20050;-78
2021/10/01 15:30:28;;;;;;;21.35;11.20;;;;;;;;;;5133998;27;20460;-75
2021/10/01 15:32:56;;;;;;;21.17;12.00;;;;;;;;;;5133853;27;20039;-77
2021/10/01 15:35:23;;;;;;;19.95;10.93;;;;;;;;;;5132624;27;20043;-77
2021/10/01 15:37:52;;;;;;;16.67;12.50;;;;;;;;;;5133662;27;20047;-74
2021/10/01 15:40:21;;;;;;;24.45;12.98;;;;;;;;;;5132664;27;20035;-75
2021/10/01 15:42:49;;;;;;;19.90;12.13;;;;;;;;;;5133947;27;20487;-76
2021/10/01 15:45:18;;;;;;;20.50;12.18;;;;;;;;;;5132553;27;20053;-75
2021/10/01 15:47:46;;;;;;;16.90;10.77;;;;;;;;;;5131758;27;20043;-75
2021/10/01 15:50:15;;;;;;;17.25;10.95;;;;;;;;;;5131815;27;20076;-76
2021/10/01 15:52:47;;;;;;;16.70;12.27;;;;;;;;;;5133461;27;20043;-76
2021/10/01 15:55:16;;;;;;;20.17;11.35;;;;;;;;;;5133090;27;20047;-73
2021/10/01 15:57:45;;;;;;;20.95;12.07;;;;;;;;;;5112794;28;20074;-71
2021/10/01 16:00:14;;;;;;;19.30;11.43;;;;;;;;;;5140460;27;20543;-77
2021/10/01 16:02:42;;;;;;;21.13;11.02;;;;;;;;;;5154807;27;20055;-72
2021/10/01 16:05:11;;;;;;;14.70;10.27;;;;;;;;;;5156293;27;20121;-71
2021/10/01 16:07:39;;;;;;;21.60;11.27;;;;;;;;;;5135663;27;20074;-71
2021/10/01 16:10:08;;;;;;;18.17;12.00;;;;;;;;;;5135500;27;20036;-71
2021/10/01 16:12:36;;;;;;;15.38;10.45;;;;;;;;;;5134238;27;20041;-76
2021/10/01 16:15:04;;;;;;;17.63;11.55;;;;;;;;;;5135485;27;20100;-72
2021/10/01 16:17:35;;;;;;;20.42;11.60;;;;;;;;;;5135141;27;20051;-71
2021/10/01 16:20:49;;;;;;;24.02;11.80;;;;;;;;;;5134959;27;20448;-72
2021/10/01 16:23:02;;;;;;;21.17;11.90;;;;;;;;;;5131462;27;20472;-72
2021/10/01 16:25:29;;;;;;;18.60;10.98;;;;;;;;;;5132705;27;20084;-71
2021/10/01 16:28:01;;;;;;;19.02;11.13;;;;;;;;;;5132350;27;20047;-71
2021/10/01 16:30:33;;;;;;;19.52;11.07;;;;;;;;;;5129988;27;20063;-71
2021/10/01 16:33:04;;;;;;;21.05;10.82;;;;;;;;;;5131571;27;20047;-73